sensor_id;sensor_type;location;lat;lon;timestamp;P1;durP1;ratioP1;P2;durP2;ratioP2
42196;SDS011;27866;48.146;17.098;2023-02-15T00:02:45;19.35;;;12.23;;
42196;SDS011;27866;48.146;17.098;2023-02-15T00:06:56;22.17;;;11.25;;
42196;SDS011;27866;48.146;17.098;2023-02-15T00:11:08;21.38;;;11.32;;
42196;SDS011;27866;48.146;17.098;2023-02-15T00:15:22;20.70;;;11.98;;
42196;SDS011;27866;48.146;17.098;2023-02-15T00:19:33;21.33;;;11.40;;
42196;SDS011;27866;48.146;17.098;2023-02-15T00:23:44;21.30;;;10.77;;
42196;SDS011;27866;48.146;17.098;2023-02-15T00:27:56;17.98;;;10.10;;
42196;SDS011;27866;48.146;17.098;2023-02-15T00:32:07;21.38;;;11.73;;
42196;SDS011;27866;48.146;17.098;2023-02-15T00:36:18;22.13;;;11.55;;
42196;SDS011;27866;48.146;17.098;2023-02-15T00:40:32;22.05;;;11.35;;
42196;SDS011;27866;48.146;17.098;2023-02-15T00:44:43;23.92;;;11.73;;
42196;SDS011;27866;48.146;17.098;2023-02-15T00:48:55;20.90;;;11.27;;
42196;SDS011;27866;48.146;17.098;2023-02-15T00:53:07;23.80;;;12.45;;
42196;SDS011;27866;48.146;17.098;2023-02-15T00:57:18;20.45;;;11.43;;
42196;SDS011;27866;48.146;17.098;2023-02-15T01:01:29;20.35;;;11.73;;
42196;SDS011;27866;48.146;17.098;2023-02-15T01:05:40;20.75;;;11.65;;
42196;SDS011;27866;48.146;17.098;2023-02-15T01:09:51;20.13;;;11.00;;
42196;SDS011;27866;48.146;17.098;2023-02-15T01:14:03;20.60;;;11.80;;
42196;SDS011;27866;48.146;17.098;2023-02-15T01:18:15;19.67;;;11.65;;
42196;SDS011;27866;48.146;17.098;2023-02-15T01:22:27;19.58;;;11.65;;
42196;SDS011;27866;48.146;17.098;2023-02-15T01:26:38;24.02;;;12.50;;
42196;SDS011;27866;48.146;17.098;2023-02-15T01:30:50;21.92;;;11.70;;
42196;SDS011;27866;48.146;17.098;2023-02-15T01:35:01;21.60;;;12.50;;
42196;SDS011;27866;48.146;17.098;2023-02-15T01:39:13;25.55;;;12.65;;
42196;SDS011;27866;48.146;17.098;2023-02-15T01:43:38;18.30;;;11.40;;
42196;SDS011;27866;48.146;17.098;2023-02-15T01:47:59;22.65;;;12.70;;
42196;SDS011;27866;48.146;17.098;2023-02-15T01:52:14;23.73;;;12.15;;
42196;SDS011;27866;48.146;17.098;2023-02-15T01:56:29;26.63;;;13.70;;
42196;SDS011;27866;48.146;17.098;2023-02-15T02:00:44;26.52;;;13.38;;
42196;SDS011;27866;48.146;17.098;2023-02-15T02:04:59;22.83;;;13.35;;
42196;SDS011;27866;48.146;17.098;2023-02-15T02:09:16;23.08;;;13.45;;
42196;SDS011;27866;48.146;17.098;2023-02-15T02:13:28;25.08;;;12.55;;
42196;SDS011;27866;48.146;17.098;2023-02-15T02:36:08;30.73;;;13.73;;
42196;SDS011;27866;48.146;17.098;2023-02-15T02:45:26;24.17;;;13.55;;
42196;SDS011;27866;48.146;17.098;2023-02-15T02:49:58;25.85;;;13.88;;
42196;SDS011;27866;48.146;17.098;2023-02-15T02:54:15;26.52;;;14.52;;
42196;SDS011;27866;48.146;17.098;2023-02-15T02:58:29;29.50;;;13.32;;
42196;SDS011;27866;48.146;17.098;2023-02-15T03:07:53;26.55;;;14.05;;
42196;SDS011;27866;48.146;17.098;2023-02-15T03:12:07;27.83;;;13.85;;
42196;SDS011;27866;48.146;17.098;2023-02-15T03:16:42;29.25;;;15.00;;
42196;SDS011;27866;48.146;17.098;2023-02-15T03:20:57;27.90;;;14.35;;
42196;SDS011;27866;48.146;17.098;2023-02-15T03:25:15;27.23;;;14.15;;
42196;SDS011;27866;48.146;17.098;2023-02-15T03:29:34;28.00;;;14.82;;
42196;SDS011;27866;48.146;17.098;2023-02-15T03:33:50;29.02;;;15.20;;
42196;SDS011;27866;48.146;17.098;2023-02-15T03:38:12;28.20;;;14.82;;
42196;SDS011;27866;48.146;17.098;2023-02-15T03:42:31;32.17;;;15.68;;
42196;SDS011;27866;48.146;17.098;2023-02-15T03:46:47;31.65;;;16.17;;
42196;SDS011;27866;48.146;17.098;2023-02-15T03:51:15;36.25;;;19.02;;
42196;SDS011;27866;48.146;17.098;2023-02-15T03:55:48;33.05;;;17.13;;
42196;SDS011;27866;48.146;17.098;2023-02-15T04:00:08;36.35;;;16.27;;
42196;SDS011;27866;48.146;17.098;2023-02-15T04:04:46;34.28;;;16.48;;
42196;SDS011;27866;48.146;17.098;2023-02-15T04:08:59;37.10;;;17.35;;
42196;SDS011;27866;48.146;17.098;2023-02-15T04:13:30;37.45;;;16.98;;
42196;SDS011;27866;48.146;17.098;2023-02-15T04:17:42;34.23;;;17.50;;
42196;SDS011;27866;48.146;17.098;2023-02-15T04:21:54;39.90;;;18.15;;
42196;SDS011;27866;48.146;17.098;2023-02-15T04:26:23;38.35;;;17.95;;
42196;SDS011;27866;48.146;17.098;2023-02-15T04:30:35;39.08;;;18.33;;
42196;SDS011;27866;48.146;17.098;2023-02-15T04:34:46;39.15;;;18.65;;
42196;SDS011;27866;48.146;17.098;2023-02-15T04:38:57;37.00;;;19.08;;
42196;SDS011;27866;48.146;17.098;2023-02-15T04:43:08;37.60;;;18.40;;
42196;SDS011;27866;48.146;17.098;2023-02-15T04:47:19;37.28;;;18.25;;
42196;SDS011;27866;48.146;17.098;2023-02-15T04:51:31;38.63;;;18.73;;
42196;SDS011;27866;48.146;17.098;2023-02-15T04:55:42;35.83;;;18.58;;
42196;SDS011;27866;48.146;17.098;2023-02-15T04:59:53;41.35;;;19.67;;
42196;SDS011;27866;48.146;17.098;2023-02-15T05:04:04;35.17;;;18.52;;
42196;SDS011;27866;48.146;17.098;2023-02-15T05:08:15;44.60;;;19.52;;
42196;SDS011;27866;48.146;17.098;2023-02-15T05:12:27;39.75;;;19.48;;
42196;SDS011;27866;48.146;17.098;2023-02-15T05:16:38;40.65;;;18.10;;
42196;SDS011;27866;48.146;17.098;2023-02-15T05:20:49;45.92;;;19.80;;
42196;SDS011;27866;48.146;17.098;2023-02-15T05:25:01;42.22;;;19.08;;
42196;SDS011;27866;48.146;17.098;2023-02-15T05:29:32;44.15;;;19.60;;
42196;SDS011;27866;48.146;17.098;2023-02-15T05:33:43;45.33;;;20.00;;
42196;SDS011;27866;48.146;17.098;2023-02-15T05:37:55;46.42;;;21.73;;
42196;SDS011;27866;48.146;17.098;2023-02-15T05:42:06;48.90;;;20.52;;
42196;SDS011;27866;48.146;17.098;2023-02-15T05:46:17;46.85;;;19.73;;
42196;SDS011;27866;48.146;17.098;2023-02-15T05:50:28;52.65;;;21.08;;
42196;SDS011;27866;48.146;17.098;2023-02-15T05:54:43;47.45;;;20.98;;
42196;SDS011;27866;48.146;17.098;2023-02-15T05:58:54;59.92;;;22.90;;
42196;SDS011;27866;48.146;17.098;2023-02-15T06:03:05;54.67;;;21.95;;
42196;SDS011;27866;48.146;17.098;2023-02-15T06:07:17;53.70;;;23.77;;
42196;SDS011;27866;48.146;17.098;2023-02-15T06:11:28;56.88;;;25.73;;
42196;SDS011;27866;48.146;17.098;2023-02-15T06:15:39;49.33;;;22.85;;
42196;SDS011;27866;48.146;17.098;2023-02-15T06:19:50;56.22;;;22.58;;
42196;SDS011;27866;48.146;17.098;2023-02-15T06:24:02;48.78;;;23.20;;
42196;SDS011;27866;48.146;17.098;2023-02-15T06:28:13;67.50;;;26.90;;
42196;SDS011;27866;48.146;17.098;2023-02-15T06:32:24;64.97;;;27.73;;
42196;SDS011;27866;48.146;17.098;2023-02-15T06:36:35;77.30;;;28.48;;
42196;SDS011;27866;48.146;17.098;2023-02-15T06:40:47;80.13;;;30.38;;
42196;SDS011;27866;48.146;17.098;2023-02-15T06:44:58;83.53;;;30.58;;
42196;SDS011;27866;48.146;17.098;2023-02-15T06:49:10;81.72;;;30.33;;
42196;SDS011;27866;48.146;17.098;2023-02-15T06:53:23;72.55;;;29.00;;
42196;SDS011;27866;48.146;17.098;2023-02-15T06:57:34;62.15;;;27.60;;
42196;SDS011;27866;48.146;17.098;2023-02-15T07:01:45;71.78;;;29.40;;
42196;SDS011;27866;48.146;17.098;2023-02-15T07:05:57;68.07;;;27.17;;
42196;SDS011;27866;48.146;17.098;2023-02-15T07:10:10;64.40;;;27.17;;
42196;SDS011;27866;48.146;17.098;2023-02-15T07:14:21;60.70;;;27.70;;
42196;SDS011;27866;48.146;17.098;2023-02-15T07:18:32;58.20;;;27.48;;
42196;SDS011;27866;48.146;17.098;2023-02-15T07:22:44;56.85;;;26.45;;
42196;SDS011;27866;48.146;17.098;2023-02-15T07:26:55;57.47;;;25.77;;
42196;SDS011;27866;48.146;17.098;2023-02-15T07:31:08;49.92;;;24.88;;
42196;SDS011;27866;48.146;17.098;2023-02-15T07:35:19;51.38;;;24.98;;
42196;SDS011;27866;48.146;17.098;2023-02-15T07:39:30;55.30;;;24.73;;
42196;SDS011;27866;48.146;17.098;2023-02-15T07:43:42;49.78;;;25.40;;
42196;SDS011;27866;48.146;17.098;2023-02-15T07:47:55;54.53;;;25.50;;
42196;SDS011;27866;48.146;17.098;2023-02-15T07:52:06;50.13;;;24.92;;
42196;SDS011;27866;48.146;17.098;2023-02-15T07:56:17;50.88;;;26.40;;
42196;SDS011;27866;48.146;17.098;2023-02-15T08:00:29;53.67;;;26.15;;
42196;SDS011;27866;48.146;17.098;2023-02-15T08:04:40;54.42;;;26.25;;
42196;SDS011;27866;48.146;17.098;2023-02-15T08:08:51;48.85;;;25.42;;
42196;SDS011;27866;48.146;17.098;2023-02-15T08:13:03;45.60;;;23.38;;
42196;SDS011;27866;48.146;17.098;2023-02-15T08:17:14;45.97;;;23.33;;
42196;SDS011;27866;48.146;17.098;2023-02-15T08:21:26;40.40;;;21.48;;
42196;SDS011;27866;48.146;17.098;2023-02-15T08:25:39;41.47;;;22.37;;
42196;SDS011;27866;48.146;17.098;2023-02-15T08:29:50;43.10;;;21.75;;
42196;SDS011;27866;48.146;17.098;2023-02-15T08:34:02;42.78;;;21.90;;
42196;SDS011;27866;48.146;17.098;2023-02-15T08:38:14;40.40;;;22.35;;
42196;SDS011;27866;48.146;17.098;2023-02-15T08:42:25;46.72;;;25.10;;
42196;SDS011;27866;48.146;17.098;2023-02-15T08:46:37;51.05;;;24.23;;
42196;SDS011;27866;48.146;17.098;2023-02-15T08:50:51;55.80;;;24.55;;
42196;SDS011;27866;48.146;17.098;2023-02-15T08:55:03;46.05;;;24.27;;
42196;SDS011;27866;48.146;17.098;2023-02-15T08:59:21;47.10;;;22.52;;
42196;SDS011;27866;48.146;17.098;2023-02-15T09:03:33;43.38;;;23.60;;
42196;SDS011;27866;48.146;17.098;2023-02-15T09:07:44;50.90;;;24.80;;
42196;SDS011;27866;48.146;17.098;2023-02-15T09:11:55;39.97;;;23.67;;
42196;SDS011;27866;48.146;17.098;2023-02-15T09:16:07;44.42;;;24.17;;
42196;SDS011;27866;48.146;17.098;2023-02-15T09:20:20;40.03;;;23.07;;
42196;SDS011;27866;48.146;17.098;2023-02-15T09:24:32;41.40;;;23.45;;
42196;SDS011;27866;48.146;17.098;2023-02-15T09:28:44;41.83;;;23.38;;
42196;SDS011;27866;48.146;17.098;2023-02-15T09:32:57;45.80;;;25.08;;
42196;SDS011;27866;48.146;17.098;2023-02-15T09:37:08;52.13;;;26.35;;
42196;SDS011;27866;48.146;17.098;2023-02-15T09:41:28;54.05;;;26.75;;
42196;SDS011;27866;48.146;17.098;2023-02-15T09:51:05;59.80;;;31.05;;
42196;SDS011;27866;48.146;17.098;2023-02-15T09:55:44;69.82;;;33.25;;
42196;SDS011;27866;48.146;17.098;2023-02-15T10:05:03;70.50;;;35.28;;
42196;SDS011;27866;48.146;17.098;2023-02-15T10:09:41;70.82;;;35.80;;
42196;SDS011;27866;48.146;17.098;2023-02-15T10:14:29;72.05;;;36.33;;
42196;SDS011;27866;48.146;17.098;2023-02-15T10:33:04;47.95;;;26.38;;
42196;SDS011;27866;48.146;17.098;2023-02-15T10:51:24;42.33;;;23.80;;
42196;SDS011;27866;48.146;17.098;2023-02-15T11:00:25;43.70;;;23.50;;
42196;SDS011;27866;48.146;17.098;2023-02-15T11:05:17;44.58;;;23.90;;
42196;SDS011;27866;48.146;17.098;2023-02-15T11:09:50;44.50;;;24.23;;
42196;SDS011;27866;48.146;17.098;2023-02-15T11:19:26;50.45;;;27.50;;
42196;SDS011;27866;48.146;17.098;2023-02-15T11:23:53;47.65;;;27.67;;
42196;SDS011;27866;48.146;17.098;2023-02-15T11:28:06;45.30;;;26.20;;
42196;SDS011;27866;48.146;17.098;2023-02-15T11:36:58;46.92;;;24.00;;
42196;SDS011;27866;48.146;17.098;2023-02-15T11:41:19;50.72;;;26.83;;
42196;SDS011;27866;48.146;17.098;2023-02-15T11:45:35;49.00;;;27.52;;
42196;SDS011;27866;48.146;17.098;2023-02-15T11:49:46;48.50;;;26.20;;
42196;SDS011;27866;48.146;17.098;2023-02-15T11:53:57;46.90;;;26.88;;
42196;SDS011;27866;48.146;17.098;2023-02-15T11:58:29;47.55;;;26.83;;
42196;SDS011;27866;48.146;17.098;2023-02-15T12:02:59;50.72;;;28.30;;
42196;SDS011;27866;48.146;17.098;2023-02-15T12:07:24;54.72;;;28.05;;
42196;SDS011;27866;48.146;17.098;2023-02-15T12:11:47;57.03;;;28.55;;
42196;SDS011;27866;48.146;17.098;2023-02-15T12:15:58;52.58;;;27.92;;
42196;SDS011;27866;48.146;17.098;2023-02-15T12:24:36;46.47;;;27.02;;
42196;SDS011;27866;48.146;17.098;2023-02-15T12:28:54;49.63;;;29.27;;
42196;SDS011;27866;48.146;17.098;2023-02-15T12:37:57;51.45;;;28.55;;
42196;SDS011;27866;48.146;17.098;2023-02-15T12:42:22;48.50;;;27.70;;
42196;SDS011;27866;48.146;17.098;2023-02-15T12:46:35;47.53;;;26.98;;
42196;SDS011;27866;48.146;17.098;2023-02-15T12:50:50;52.50;;;27.65;;
42196;SDS011;27866;48.146;17.098;2023-02-15T12:59:32;54.70;;;29.17;;
42196;SDS011;27866;48.146;17.098;2023-02-15T13:03:58;54.30;;;27.35;;
42196;SDS011;27866;48.146;17.098;2023-02-15T13:08:18;49.70;;;27.95;;
42196;SDS011;27866;48.146;17.098;2023-02-15T13:12:46;53.90;;;30.02;;
42196;SDS011;27866;48.146;17.098;2023-02-15T13:16:58;57.45;;;29.55;;
42196;SDS011;27866;48.146;17.098;2023-02-15T13:21:18;51.67;;;27.98;;
42196;SDS011;27866;48.146;17.098;2023-02-15T13:25:38;52.25;;;28.75;;
42196;SDS011;27866;48.146;17.098;2023-02-15T13:30:02;52.95;;;27.20;;
42196;SDS011;27866;48.146;17.098;2023-02-15T13:34:33;49.35;;;26.70;;
42196;SDS011;27866;48.146;17.098;2023-02-15T14:11:29;55.45;;;29.42;;
42196;SDS011;27866;48.146;17.098;2023-02-15T14:21:00;54.45;;;28.83;;
42196;SDS011;27866;48.146;17.098;2023-02-15T14:25:43;52.13;;;29.27;;
42196;SDS011;27866;48.146;17.098;2023-02-15T14:30:10;54.97;;;28.52;;
42196;SDS011;27866;48.146;17.098;2023-02-15T14:34:51;53.75;;;28.58;;
42196;SDS011;27866;48.146;17.098;2023-02-15T14:44:01;51.30;;;26.98;;
42196;SDS011;27866;48.146;17.098;2023-02-15T14:48:28;48.85;;;25.75;;
42196;SDS011;27866;48.146;17.098;2023-02-15T14:57:39;46.67;;;25.35;;
42196;SDS011;27866;48.146;17.098;2023-02-15T15:06:27;52.05;;;25.92;;
42196;SDS011;27866;48.146;17.098;2023-02-15T15:10:44;46.67;;;25.17;;
42196;SDS011;27866;48.146;17.098;2023-02-15T15:14:58;50.85;;;26.50;;
42196;SDS011;27866;48.146;17.098;2023-02-15T15:19:10;47.60;;;26.33;;
42196;SDS011;27866;48.146;17.098;2023-02-15T15:27:48;49.50;;;26.75;;
42196;SDS011;27866;48.146;17.098;2023-02-15T15:32:03;54.40;;;27.25;;
42196;SDS011;27866;48.146;17.098;2023-02-15T15:40:59;53.42;;;27.45;;
42196;SDS011;27866;48.146;17.098;2023-02-15T15:46:04;48.40;;;24.60;;
42196;SDS011;27866;48.146;17.098;2023-02-15T15:50:38;48.95;;;24.98;;
42196;SDS011;27866;48.146;17.098;2023-02-15T15:54:57;46.38;;;25.23;;
42196;SDS011;27866;48.146;17.098;2023-02-15T15:59:20;50.70;;;26.42;;
42196;SDS011;27866;48.146;17.098;2023-02-15T16:03:48;50.25;;;25.33;;
42196;SDS011;27866;48.146;17.098;2023-02-15T16:08:04;53.75;;;26.83;;
42196;SDS011;27866;48.146;17.098;2023-02-15T16:12:16;52.15;;;26.25;;
42196;SDS011;27866;48.146;17.098;2023-02-15T16:16:30;58.30;;;26.70;;
42196;SDS011;27866;48.146;17.098;2023-02-15T16:20:41;76.82;;;28.30;;
42196;SDS011;27866;48.146;17.098;2023-02-15T16:29:53;54.45;;;27.88;;
42196;SDS011;27866;48.146;17.098;2023-02-15T16:34:07;63.17;;;28.52;;
42196;SDS011;27866;48.146;17.098;2023-02-15T16:42:59;56.08;;;26.77;;
42196;SDS011;27866;48.146;17.098;2023-02-15T16:47:19;62.58;;;29.00;;
42196;SDS011;27866;48.146;17.098;2023-02-15T16:51:35;60.78;;;28.33;;
42196;SDS011;27866;48.146;17.098;2023-02-15T16:55:48;61.20;;;27.85;;
42196;SDS011;27866;48.146;17.098;2023-02-15T17:00:14;58.95;;;27.80;;
42196;SDS011;27866;48.146;17.098;2023-02-15T17:04:35;60.15;;;28.15;;
42196;SDS011;27866;48.146;17.098;2023-02-15T17:08:48;65.65;;;29.70;;
42196;SDS011;27866;48.146;17.098;2023-02-15T17:13:00;69.15;;;30.83;;
42196;SDS011;27866;48.146;17.098;2023-02-15T17:17:30;65.65;;;29.73;;
42196;SDS011;27866;48.146;17.098;2023-02-15T17:21:45;69.95;;;31.65;;
42196;SDS011;27866;48.146;17.098;2023-02-15T17:26:13;77.57;;;34.65;;
42196;SDS011;27866;48.146;17.098;2023-02-15T17:30:30;84.45;;;36.03;;
42196;SDS011;27866;48.146;17.098;2023-02-15T17:39:31;81.75;;;35.05;;
42196;SDS011;27866;48.146;17.098;2023-02-15T17:43:43;81.13;;;37.20;;
42196;SDS011;27866;48.146;17.098;2023-02-15T17:47:54;75.25;;;35.40;;
42196;SDS011;27866;48.146;17.098;2023-02-15T17:52:12;79.97;;;35.40;;
42196;SDS011;27866;48.146;17.098;2023-02-15T17:56:24;80.03;;;36.25;;
42196;SDS011;27866;48.146;17.098;2023-02-15T18:00:45;78.10;;;36.55;;
42196;SDS011;27866;48.146;17.098;2023-02-15T18:05:20;83.70;;;35.80;;
42196;SDS011;27866;48.146;17.098;2023-02-15T18:09:50;82.68;;;36.85;;
42196;SDS011;27866;48.146;17.098;2023-02-15T18:14:20;84.60;;;38.20;;
42196;SDS011;27866;48.146;17.098;2023-02-15T18:18:32;81.88;;;38.55;;
42196;SDS011;27866;48.146;17.098;2023-02-15T18:22:43;90.32;;;40.38;;
42196;SDS011;27866;48.146;17.098;2023-02-15T18:26:58;91.95;;;40.65;;
42196;SDS011;27866;48.146;17.098;2023-02-15T18:31:09;84.20;;;41.08;;
42196;SDS011;27866;48.146;17.098;2023-02-15T18:35:22;85.13;;;40.10;;
42196;SDS011;27866;48.146;17.098;2023-02-15T18:39:47;86.85;;;41.17;;
42196;SDS011;27866;48.146;17.098;2023-02-15T18:44:07;89.20;;;41.83;;
42196;SDS011;27866;48.146;17.098;2023-02-15T18:48:21;90.45;;;44.00;;
42196;SDS011;27866;48.146;17.098;2023-02-15T18:52:33;91.32;;;43.17;;
42196;SDS011;27866;48.146;17.098;2023-02-15T18:56:52;90.57;;;43.17;;
42196;SDS011;27866;48.146;17.098;2023-02-15T19:01:11;90.10;;;42.65;;
42196;SDS011;27866;48.146;17.098;2023-02-15T19:05:31;91.13;;;43.72;;
42196;SDS011;27866;48.146;17.098;2023-02-15T19:09:43;92.05;;;43.55;;
42196;SDS011;27866;48.146;17.098;2023-02-15T19:18:08;90.40;;;41.97;;
42196;SDS011;27866;48.146;17.098;2023-02-15T19:22:27;97.32;;;43.45;;
42196;SDS011;27866;48.146;17.098;2023-02-15T19:26:41;99.47;;;45.92;;
42196;SDS011;27866;48.146;17.098;2023-02-15T19:30:53;92.85;;;44.35;;
42196;SDS011;27866;48.146;17.098;2023-02-15T19:35:13;92.90;;;42.97;;
42196;SDS011;27866;48.146;17.098;2023-02-15T19:39:36;94.10;;;43.80;;
42196;SDS011;27866;48.146;17.098;2023-02-15T19:43:50;97.20;;;45.42;;
42196;SDS011;27866;48.146;17.098;2023-02-15T19:48:05;94.18;;;44.90;;
42196;SDS011;27866;48.146;17.098;2023-02-15T19:52:17;93.93;;;43.55;;
42196;SDS011;27866;48.146;17.098;2023-02-15T19:56:33;96.10;;;44.75;;
42196;SDS011;27866;48.146;17.098;2023-02-15T20:00:46;95.10;;;43.05;;
42196;SDS011;27866;48.146;17.098;2023-02-15T20:04:59;95.63;;;42.03;;
42196;SDS011;27866;48.146;17.098;2023-02-15T20:09:32;88.32;;;42.05;;
42196;SDS011;27866;48.146;17.098;2023-02-15T20:17:56;92.10;;;42.08;;
42196;SDS011;27866;48.146;17.098;2023-02-15T20:22:24;86.82;;;40.38;;
42196;SDS011;27866;48.146;17.098;2023-02-15T20:26:36;96.93;;;41.15;;
42196;SDS011;27866;48.146;17.098;2023-02-15T20:30:48;90.50;;;39.55;;
42196;SDS011;27866;48.146;17.098;2023-02-15T20:35:00;91.10;;;42.10;;
42196;SDS011;27866;48.146;17.098;2023-02-15T20:39:14;97.78;;;41.83;;
42196;SDS011;27866;48.146;17.098;2023-02-15T20:43:29;95.22;;;41.97;;
42196;SDS011;27866;48.146;17.098;2023-02-15T20:47:42;93.97;;;42.33;;
42196;SDS011;27866;48.146;17.098;2023-02-15T20:51:57;92.82;;;42.53;;
42196;SDS011;27866;48.146;17.098;2023-02-15T20:56:29;94.97;;;40.50;;
42196;SDS011;27866;48.146;17.098;2023-02-15T21:00:41;90.15;;;40.13;;
42196;SDS011;27866;48.146;17.098;2023-02-15T21:04:53;91.63;;;37.25;;
42196;SDS011;27866;48.146;17.098;2023-02-15T21:09:04;94.28;;;37.63;;
42196;SDS011;27866;48.146;17.098;2023-02-15T21:13:24;95.53;;;38.65;;
42196;SDS011;27866;48.146;17.098;2023-02-15T21:17:39;90.93;;;38.45;;
42196;SDS011;27866;48.146;17.098;2023-02-15T21:21:51;81.22;;;36.50;;
42196;SDS011;27866;48.146;17.098;2023-02-15T21:26:03;96.80;;;40.53;;
42196;SDS011;27866;48.146;17.098;2023-02-15T21:30:15;93.50;;;39.15;;
42196;SDS011;27866;48.146;17.098;2023-02-15T21:34:29;96.38;;;39.50;;
42196;SDS011;27866;48.146;17.098;2023-02-15T21:38:40;98.85;;;38.67;;
42196;SDS011;27866;48.146;17.098;2023-02-15T21:42:51;93.43;;;40.38;;
42196;SDS011;27866;48.146;17.098;2023-02-15T21:51:56;99.78;;;43.60;;
42196;SDS011;27866;48.146;17.098;2023-02-15T21:56:23;108.00;;;45.85;;
42196;SDS011;27866;48.146;17.098;2023-02-15T22:00:34;105.13;;;45.00;;
42196;SDS011;27866;48.146;17.098;2023-02-15T22:04:46;110.20;;;46.28;;
42196;SDS011;27866;48.146;17.098;2023-02-15T22:08:57;110.63;;;46.85;;
42196;SDS011;27866;48.146;17.098;2023-02-15T22:13:11;119.65;;;48.90;;
42196;SDS011;27866;48.146;17.098;2023-02-15T22:17:37;122.20;;;49.38;;
42196;SDS011;27866;48.146;17.098;2023-02-15T22:21:48;119.07;;;48.10;;
42196;SDS011;27866;48.146;17.098;2023-02-15T22:26:04;111.93;;;46.53;;
42196;SDS011;27866;48.146;17.098;2023-02-15T22:30:32;114.93;;;46.08;;
42196;SDS011;27866;48.146;17.098;2023-02-15T22:38:57;93.45;;;41.30;;
42196;SDS011;27866;48.146;17.098;2023-02-15T22:43:12;104.38;;;41.15;;
42196;SDS011;27866;48.146;17.098;2023-02-15T22:47:39;97.60;;;40.17;;
42196;SDS011;27866;48.146;17.098;2023-02-15T22:51:51;98.03;;;39.17;;
42196;SDS011;27866;48.146;17.098;2023-02-15T22:56:03;96.10;;;40.63;;
42196;SDS011;27866;48.146;17.098;2023-02-15T23:00:18;88.40;;;38.33;;
42196;SDS011;27866;48.146;17.098;2023-02-15T23:04:45;90.95;;;37.65;;
42196;SDS011;27866;48.146;17.098;2023-02-15T23:08:57;97.40;;;38.40;;
42196;SDS011;27866;48.146;17.098;2023-02-15T23:13:17;92.68;;;38.10;;
42196;SDS011;27866;48.146;17.098;2023-02-15T23:17:58;92.47;;;36.03;;
42196;SDS011;27866;48.146;17.098;2023-02-15T23:22:48;84.88;;;34.70;;
42196;SDS011;27866;48.146;17.098;2023-02-15T23:26:59;91.60;;;35.47;;
42196;SDS011;27866;48.146;17.098;2023-02-15T23:31:30;100.38;;;36.67;;
42196;SDS011;27866;48.146;17.098;2023-02-15T23:35:43;89.60;;;34.55;;
42196;SDS011;27866;48.146;17.098;2023-02-15T23:39:55;94.30;;;36.47;;
42196;SDS011;27866;48.146;17.098;2023-02-15T23:44:25;98.95;;;35.63;;
42196;SDS011;27866;48.146;17.098;2023-02-15T23:48:37;92.53;;;37.20;;
42196;SDS011;27866;48.146;17.098;2023-02-15T23:52:49;90.95;;;36.70;;
42196;SDS011;27866;48.146;17.098;2023-02-15T23:57:02;90.65;;;34.60;;
